Latest Weather Observations for Inverell RS

IDN60801

Issued at 1:33 pm EST Sunday 25 September 2016 (issued every 30 minutes, with the page automatically refreshed every 10 minutes)

About weather observations | Map of weather stations | Latest weather observations for NSW | Other Formats
Station Details ID: 056018 Name: INVERELL RESEARCH CENTRE Lat: -29.78 Lon: 151.08 Height: 664.0 m
Data from the previous 72 hours. | See also: Recent months at Inverell RS
Date/Time
EST
Temp
°C
App
Temp
°C
Dew
Point
°C
Rel
Hum
%
Delta-T
°C
Wind Press
QNH
hPa
Press
MSL
hPa
Rain since
9am
mm
Dir  Spd
km/h
Gust
km/h
Spd
kts
Gust
kts
25/01:30pm 14.1 12.9 11.6 85 1.4 WNW 9 13 5 7 1008.9 - 2.6
25/01:00pm 15.9 13.8 11.2 73 2.6 WSW 13 30 7 16 1008.7 - 0.2
25/12:30pm 17.3 14.1 9.8 61 4.1 W 17 35 9 19 1008.7 - 0.2
25/12:00pm 16.8 12.8 10.4 66 3.5 NNW 22 39 12 21 1009.3 1008.4 0.2
25/11:30am 16.6 15.2 10.8 68 3.2 W 9 17 5 9 1009.8 - 0.2
25/11:00am 14.6 12.3 10.4 76 2.3 NW 13 24 7 13 1010.1 - 0.2
25/10:30am 14.6 12.7 10.6 77 2.2 N 11 19 6 10 1010.2 - 0.2
25/10:00am 14.7 13.6 11.8 83 1.6 N 9 17 5 9 1010.2 - 0.2
25/09:30am 13.4 12.2 11.6 89 1.0 N 9 13 5 7 1010.4 - 0.2
25/09:00am 12.2 10.5 11.3 94 0.5 N 11 22 6 12 1010.4 1009.3 4.2
25/08:30am 13.2 11.6 10.2 82 1.6 N 9 11 5 6 1010.1 - 1.6
25/08:00am 12.7 11.1 10.1 84 1.4 N 9 13 5 7 1010.0 - 1.6
25/07:30am 12.7 11.2 10.7 88 1.1 N 9 13 5 7 1010.1 - 1.6
25/07:00am 11.1 9.9 10.2 94 0.5 N 7 11 4 6 1010.1 - 1.6
25/06:30am 10.5 9.2 9.9 96 0.3 N 7 9 4 5 1009.9 - 1.6
25/06:00am 10.3 9.5 9.7 96 0.3 W 4 7 2 4 1009.8 1008.8 1.6
25/05:30am 10.3 9.9 9.9 97 0.2 S 2 7 1 4 1010.0 - 1.6
25/05:00am 10.2 9.1 9.8 97 0.2 SE 6 7 3 4 1009.6 - 1.2
25/04:30am 10.6 10.7 10.0 96 0.3 CALM 0 0 0 0 1010.2 - 1.0
25/04:00am 10.8 9.7 9.8 93 0.5 WNW 6 7 3 4 1010.4 - 0.2
25/03:30am 11.0 10.2 9.5 90 0.8 N 4 7 2 4 1010.3 - 0.0
25/03:00am 10.8 10.7 9.3 90 0.8 CALM 0 0 0 0 1010.2 1009.0 0.0
25/02:30am 11.1 10.9 9.2 88 1.0 CALM 0 0 0 0 1009.9 - 0.0
25/02:00am 10.9 10.7 9.2 89 0.9 CALM 0 0 0 0 1010.1 - 0.0
25/01:30am 11.1 10.5 9.0 87 1.1 SSE 2 7 1 4 1010.4 - 0.0
25/01:00am 11.0 9.6 8.9 87 1.1 S 6 7 3 4 1010.9 - 0.0
25/12:30am 10.9 9.9 9.0 88 1.0 S 4 7 2 4 1011.2 - 0.0
25/12:00am 10.9 9.6 9.2 89 0.9 S 6 9 3 5 1011.4 1010.5 0.0
 
Date/Time
EST
Temp
°C
App
Temp
°C
Dew
Point
°C
Rel
Hum
%
Delta-T
°C
Wind Press
QNH
hPa
Press
MSL
hPa
Rain since
9am
mm
Dir  Spd
km/h
Gust
km/h
Spd
kts
Gust
kts
24/11:30pm 11.1 9.7 9.0 87 1.1 S 6 7 3 4 1011.4 - 0.0
24/11:00pm 10.9 10.7 9.0 88 1.0 CALM 0 0 0 0 1011.7 - 0.0
24/10:30pm 11.7 10.3 8.8 82 1.5 SSE 6 9 3 5 1011.8 - 0.0
24/10:00pm 12.0 11.0 8.9 81 1.6 ESE 4 7 2 4 1011.9 - 0.0
24/09:30pm 14.1 11.6 8.1 67 3.1 W 11 17 6 9 1012.1 - 0.0
24/09:00pm 12.2 10.6 8.9 80 1.7 NW 7 11 4 6 1012.2 1011.3 0.0
24/08:30pm 13.3 11.7 8.7 73 2.4 WNW 7 15 4 8 1011.7 - 0.0
24/08:00pm 14.1 12.1 8.8 70 2.8 W 9 13 5 7 1011.9 - 0.0
24/07:30pm 13.6 11.6 8.6 72 2.6 W 9 11 5 6 1011.3 - 0.0
24/07:00pm 13.6 11.6 8.8 73 2.5 NW 9 11 5 6 1010.9 - 0.0
24/06:30pm 14.3 12.8 9.2 71 2.7 W 7 9 4 5 1011.0 - 0.0
24/06:00pm 15.9 14.1 9.6 66 3.4 W 9 11 5 6 1011.1 1010.1 0.0
24/05:30pm 17.0 14.8 9.2 60 4.2 WNW 11 15 6 8 1011.1 - 0.0
24/05:00pm 18.3 15.9 8.6 53 5.2 W 11 20 6 11 1010.9 - 0.0
24/04:30pm 19.2 17.3 7.7 47 6.1 W 7 13 4 7 1010.6 - 0.0
24/04:00pm 19.8 16.9 6.5 42 6.9 NNW 11 17 6 9 1010.5 - 0.0
24/03:30pm 19.8 16.0 5.8 40 7.2 N 15 26 8 14 1010.5 - 0.0
24/03:00pm 20.5 18.0 8.0 44 6.7 N 11 22 6 12 1010.5 1009.5 0.0
24/02:30pm 20.4 18.0 6.9 41 7.1 NNW 9 24 5 13 1010.6 - 0.0
24/02:00pm 19.5 16.4 7.4 45 6.4 N 13 24 7 13 1010.5 - 0.0
24/01:30pm 19.6 16.9 7.3 45 6.5 NNE 11 19 6 10 1010.6 - 0.0
24/01:00pm 19.4 16.7 7.5 46 6.3 N 11 17 6 9 1011.3 - 0.0
24/12:30pm 18.7 16.5 8.0 49 5.7 NW 9 17 5 9 1011.7 - 0.0
24/12:00pm 19.6 17.4 8.0 47 6.2 N 9 19 5 10 1012.3 1011.5 0.0
24/11:30am 17.9 15.4 8.3 53 5.1 W 11 17 6 9 1013.0 - 0.0
24/11:00am 17.2 14.2 7.9 54 4.9 NNW 13 17 7 9 1013.4 - 0.0
24/10:30am 16.6 13.7 8.0 57 4.5 N 13 24 7 13 1013.7 - 0.0
24/10:00am 16.8 14.9 8.9 59 4.2 N 9 17 5 9 1013.9 - 0.0
24/09:30am 15.2 12.6 7.9 61 3.8 N 11 17 6 9 1014.3 - 0.0
24/09:00am 14.5 12.6 9.2 70 2.8 NE 9 13 5 7 1014.5 1013.6 0.0
24/08:30am 13.9 12.5 8.7 71 2.7 NE 6 9 3 5 1014.5 - 0.0
24/08:00am 12.3 10.7 8.2 76 2.1 E 6 9 3 5 1014.5 - 0.0
24/07:30am 10.8 8.9 7.6 80 1.6 E 7 11 4 6 1014.4 - 0.0
24/07:00am 9.8 8.1 8.2 90 0.8 SE 7 11 4 6 1014.2 - 0.0
24/06:30am 7.7 5.7 6.9 95 0.4 SSE 7 9 4 5 1013.7 - 0.0
24/06:00am 6.5 3.9 6.3 99 0.1 SSW 9 11 5 6 1013.3 1012.4 0.0
24/05:30am 5.5 3.3 5.3 99 0.1 SSW 6 13 3 7 1013.2 - 0.0
24/05:00am 6.1 4.8 5.9 99 0.1 S 2 9 1 5 1013.1 - 0.0
24/04:30am 6.5 4.2 5.9 96 0.3 SSE 7 7 4 4 1012.8 - 0.0
24/04:00am 5.8 3.7 5.6 99 0.1 S 6 7 3 4 1012.6 - 0.0
24/03:30am 6.0 5.0 5.6 97 0.2 CALM 0 0 0 0 1012.6 - 0.0
24/03:00am 7.7 7.0 7.1 96 0.3 CALM 0 0 0 0 1012.6 1011.5 0.0
24/02:30am 7.7 6.9 6.7 93 0.5 CALM 0 0 0 0 1012.7 - 0.0
24/02:00am 7.7 6.2 6.7 93 0.5 S 4 6 2 3 1012.8 - 0.0
24/01:30am 8.0 6.1 6.5 90 0.7 S 6 7 3 4 1013.0 - 0.0
24/01:00am 8.1 6.2 6.9 92 0.6 S 6 7 3 4 1013.2 - 0.0
24/12:30am 8.2 7.6 7.2 93 0.5 CALM 0 0 0 0 1013.3 - 0.0
24/12:00am 9.0 7.4 7.8 92 0.6 S 6 6 3 3 1013.4 1012.6 0.0
 
Date/Time
EST
Temp
°C
App
Temp
°C
Dew
Point
°C
Rel
Hum
%
Delta-T
°C
Wind Press
QNH
hPa
Press
MSL
hPa
Rain since
9am
mm
Dir  Spd
km/h
Gust
km/h
Spd
kts
Gust
kts
23/11:30pm 9.1 8.0 8.3 95 0.4 SW 4 7 2 4 1013.5 - 0.0
23/11:00pm 8.5 8.1 8.1 97 0.2 CALM 0 0 0 0 1013.5 - 0.0
23/10:30pm 8.8 7.2 8.0 95 0.4 WSW 6 9 3 5 1013.6 - 0.0
23/10:00pm 9.8 7.7 8.4 91 0.7 WSW 9 11 5 6 1013.8 - 0.0
23/09:30pm 11.9 9.9 8.8 81 1.6 W 9 13 5 7 1014.1 - 0.0
23/09:00pm 12.5 10.5 8.6 77 2.0 W 9 13 5 7 1013.9 1013.0 0.0
23/08:30pm 12.2 10.3 8.9 80 1.7 W 9 13 5 7 1013.7 - 0.0
23/08:00pm 12.5 10.5 8.8 78 1.9 W 9 13 5 7 1013.6 - 0.0
23/07:30pm 12.8 10.9 9.0 78 2.0 W 9 13 5 7 1013.4 - 0.0
23/07:00pm 13.0 11.5 9.0 77 2.1 WSW 7 9 4 5 1013.3 - 0.0
23/06:30pm 14.2 12.3 8.9 70 2.8 W 9 13 5 7 1013.1 - 0.0
23/06:00pm 14.7 13.2 9.0 68 3.0 W 7 11 4 6 1012.8 1011.8 0.0
23/05:30pm 15.7 14.4 9.1 65 3.5 NW 6 11 3 6 1012.6 - 0.0
23/05:00pm 16.0 14.7 9.1 63 3.7 WSW 6 9 3 5 1012.2 - 0.0
23/04:30pm 16.5 14.2 7.4 55 4.7 S 9 17 5 9 1012.1 - 0.0
23/04:00pm 16.7 14.2 6.7 51 5.1 WSW 9 15 5 8 1012.0 - 0.0
23/03:30pm 17.8 14.5 6.5 47 5.8 SW 13 20 7 11 1012.0 - 0.0
23/03:00pm 17.9 14.6 6.4 47 5.9 SSW 13 24 7 13 1012.0 1011.1 0.0
23/02:30pm 17.6 14.5 7.4 51 5.3 WSW 13 22 7 12 1012.2 - 0.0
23/02:00pm 17.7 14.6 7.3 50 5.4 SSW 13 22 7 12 1012.5 - 0.0
23/01:30pm 17.1 14.4 7.5 53 5.0 SSW 11 20 6 11 1012.7 - 0.0
23/01:00pm 16.9 14.5 7.0 52 5.1 SSW 9 15 5 8 1012.8 - 0.0
23/12:30pm 16.4 13.7 7.3 55 4.7 SSW 11 24 6 13 1012.9 - 0.0
23/12:00pm 16.1 13.1 7.8 58 4.3 S 13 20 7 11 1013.1 1012.3 0.0
23/11:30am 15.8 12.9 8.2 60 4.0 S 13 20 7 11 1013.5 - 0.0
23/11:00am 15.2 12.1 7.2 59 4.1 SSW 13 22 7 12 1013.8 - 0.0
23/10:30am 14.9 12.2 7.3 60 3.9 S 11 20 6 11 1013.9 - 0.0
23/10:00am 14.0 10.7 6.6 61 3.7 WSW 13 28 7 15 1014.3 - 0.0
23/09:30am 13.1 10.3 6.9 66 3.1 WSW 11 19 6 10 1014.5 - 0.0
23/09:00am 12.1 9.0 7.1 71 2.5 SW 13 19 7 10 1014.6 1013.7 0.0
23/08:30am 11.3 8.9 7.1 75 2.1 SW 9 15 5 8 1014.7 - 0.0
23/08:00am 10.8 7.7 7.2 78 1.8 S 13 22 7 12 1014.7 - 0.0
23/07:30am 10.1 8.0 6.8 80 1.6 W 7 11 4 6 1014.5 - 0.0
23/07:00am 9.2 7.1 6.5 83 1.3 WSW 7 15 4 8 1014.2 - 0.0
23/06:30am 8.5 5.9 6.0 84 1.2 SW 9 11 5 6 1013.6 - 0.0
23/06:00am 7.6 4.9 5.7 88 0.9 WSW 9 13 5 7 1013.5 1012.5 0.0
23/05:30am 7.6 5.0 5.9 89 0.8 WSW 9 13 5 7 1013.0 - 0.0
23/05:00am 7.9 5.8 5.8 86 1.0 WSW 6 13 3 7 1013.0 - 0.0
23/04:30am 7.7 6.0 5.8 88 0.9 NW 4 7 2 4 1013.0 - 0.0
23/04:00am 7.7 5.6 5.6 86 1.0 S 6 9 3 5 1012.7 - 0.0
23/03:30am 7.6 5.5 5.7 88 0.9 SSE 6 7 3 4 1012.8 - 0.0
23/03:00am 7.7 5.3 5.3 85 1.1 S 7 9 4 5 1012.8 1011.7 0.0
23/02:30am 7.9 5.5 5.3 84 1.2 SSE 7 17 4 9 1012.7 - 0.0
23/02:00am 7.8 5.5 5.7 86 1.0 S 7 13 4 7 1013.0 - 0.0
23/01:30am 7.9 5.5 5.3 84 1.2 S 7 11 4 6 1013.4 - 0.0
23/01:00am 8.1 5.9 5.1 81 1.4 S 6 9 3 5 1013.6 - 0.0
23/12:30am 8.7 6.2 5.0 77 1.7 SSW 7 11 4 6 1014.1 - 0.0
23/12:00am 8.9 6.6 5.0 76 1.8 SW 6 7 3 4 1014.3 1013.5 0.0
 
Date/Time
EST
Temp
°C
App
Temp
°C
Dew
Point
°C
Rel
Hum
%
Delta-T
°C
Wind Press
QNH
hPa
Press
MSL
hPa
Rain since
9am
mm
Dir  Spd
km/h
Gust
km/h
Spd
kts
Gust
kts
22/11:30pm 9.0 6.5 4.9 75 1.9 SW 7 13 4 7 1014.5 - 0.0
22/11:00pm 9.0 7.1 4.7 74 2.0 S 4 9 2 5 1014.5 - 0.0
22/10:30pm 8.4 6.8 4.7 77 1.7 S 2 6 1 3 1014.6 - 0.0
22/10:00pm 8.0 6.9 5.0 81 1.4 CALM 0 0 0 0 1014.5 - 0.0
22/09:30pm 9.3 7.4 4.8 73 2.1 WNW 4 7 2 4 1014.6 - 0.0
22/09:00pm 9.0 7.5 5.0 76 1.9 SE 2 6 1 3 1014.6 1013.6 0.0
22/08:30pm 9.8 7.7 5.6 75 2.0 NE 6 9 3 5 1014.4 - 0.0
22/08:00pm 11.3 9.5 5.5 67 2.8 N 4 7 2 4 1014.3 - 0.0
22/07:30pm 11.5 9.8 5.7 67 2.8 SW 4 7 2 4 1013.9 - 0.0
22/07:00pm 12.4 9.7 5.4 62 3.4 NW 9 17 5 9 1013.7 - 0.0
22/06:30pm 12.5 10.0 4.7 59 3.7 NW 7 15 4 8 1013.3 - 0.0
22/06:00pm 13.4 11.0 5.1 57 4.0 NW 7 17 4 9 1013.0 1011.9 0.0
22/05:30pm 13.8 10.6 4.9 55 4.3 W 11 26 6 14 1012.7 - 0.0
22/05:00pm 14.5 11.6 4.5 51 4.8 WSW 9 15 5 8 1012.3 - 0.0
22/04:30pm 15.3 12.5 5.1 50 5.0 W 9 17 5 9 1011.9 - 0.0
22/04:00pm 16.1 12.0 4.6 46 5.6 WNW 15 32 8 17 1011.7 - 0.0
22/03:30pm 15.7 12.2 5.4 50 5.1 W 13 32 7 17 1011.5 - 0.0
22/03:00pm 16.3 12.3 6.5 52 5.0 WNW 17 33 9 18 1011.4 1010.4 0.0
22/02:00pm 14.8 10.9 5.5 53 4.6 WNW 15 30 8 16 1011.7 - 0.0

Other Formats:

Comma delimited format used in spreadsheet applications
http://www.bom.gov.au/fwo/IDN60801/IDN60801.94541.axf

JavaScript Object Notation format (JSON) in row-major order
http://www.bom.gov.au/fwo/IDN60801/IDN60801.94541.json